createdAt,value
2022-08-22T00:01:25.777Z,99568.06
2022-08-22T00:02:54.564Z,99542.25
2022-08-22T00:03:09.862Z,99550.72
2022-08-22T00:03:58.379Z,99568.72
2022-08-22T00:06:33.355Z,99571.41
2022-08-22T00:09:07.814Z,99572.53
2022-08-22T00:11:42.639Z,99574.44
2022-08-22T00:14:14.767Z,99566.69
2022-08-22T00:16:48.115Z,99576.09
2022-08-22T00:19:24.562Z,99578.16
2022-08-22T00:21:59.458Z,99573.31
2022-08-22T00:24:31.313Z,99572.53
2022-08-22T00:27:04.381Z,99576.81
2022-08-22T00:29:37.394Z,99577.28
2022-08-22T00:32:10.348Z,99568.25
2022-08-22T00:34:41.590Z,99574.91
2022-08-22T00:37:17.103Z,99574.13
2022-08-22T00:39:48.907Z,99579.84
2022-08-22T00:42:31.680Z,99579.06
2022-08-22T00:45:15.304Z,99587.19
2022-08-22T00:47:53.677Z,99576.91
2022-08-22T00:50:35.257Z,99588.50
2022-08-22T00:53:24.686Z,99577.22
2022-08-22T00:56:03.906Z,99595.72
2022-08-22T00:58:45.707Z,99591.75
2022-08-22T01:01:15.266Z,99595.91
2022-08-22T01:06:40.743Z,99600.78
2022-08-22T01:09:16.265Z,99594.44
2022-08-22T01:14:47.624Z,99600.97
2022-08-22T01:17:33.747Z,99609.75
2022-08-22T01:20:20.763Z,99603.84
2022-08-22T01:23:06.668Z,99600.78
2022-08-22T01:25:50.885Z,99601.97
2022-08-22T01:28:51.856Z,99602.97
2022-08-22T01:31:40.988Z,99595.50
2022-08-22T01:34:32.995Z,99594.06
2022-08-22T01:37:19.753Z,99594.97
2022-08-22T01:39:57.581Z,99599.28
2022-08-22T01:42:39.499Z,99602.75
2022-08-22T01:45:21.602Z,99591.28
2022-08-22T01:47:54.351Z,99585.13
2022-08-22T01:50:27.269Z,99595.88
2022-08-22T01:53:03.840Z,99589.66
2022-08-22T01:55:36.018Z,99583.34
2022-08-22T01:58:06.144Z,99574.09
2022-08-22T02:00:53.208Z,99565.34
2022-08-22T02:03:25.553Z,99563.25
2022-08-22T02:06:01.207Z,99561.00
2022-08-22T02:08:35.113Z,99554.19
2022-08-22T02:11:05.429Z,99544.16
2022-08-22T02:13:42.627Z,99550.94
2022-08-22T02:16:13.044Z,99587.28
2022-08-22T02:18:52.110Z,99573.38
2022-08-22T02:21:24.657Z,99568.34
2022-08-22T02:23:56.239Z,99567.75
2022-08-22T02:26:27.198Z,99554.25
2022-08-22T02:28:59.799Z,99563.41
2022-08-22T02:31:37.710Z,99564.28
2022-08-22T02:34:20.109Z,99570.50
2022-08-22T02:36:51.763Z,99564.28
2022-08-22T02:39:23.082Z,99572.09
2022-08-22T02:41:55.646Z,99574.91
2022-08-22T02:44:27.822Z,99576.50
2022-08-22T02:47:02.646Z,99588.88
2022-08-22T02:49:35.093Z,99587.75
2022-08-22T02:52:15.410Z,99586.94
2022-08-22T02:54:49.000Z,99576.50
2022-08-22T02:57:21.566Z,99583.00
2022-08-22T03:00:32.072Z,99584.59
2022-08-22T03:03:07.497Z,99590.13
2022-08-22T03:05:47.406Z,99586.41
2022-08-22T03:08:21.099Z,99593.41
2022-08-22T03:10:57.283Z,99589.72
2022-08-22T03:13:27.376Z,99590.63
2022-08-22T03:15:57.925Z,99595.84
2022-08-22T03:18:28.508Z,99593.03
2022-08-22T03:21:01.175Z,99600.91
2022-08-22T03:23:35.899Z,99598.69
2022-08-22T03:26:08.250Z,99598.81
2022-08-22T03:28:40.137Z,99599.28
2022-08-22T03:31:33.810Z,99592.56
2022-08-22T03:34:20.491Z,99601.78
2022-08-22T03:36:49.898Z,99601.13
2022-08-22T03:39:20.692Z,99600.13
2022-08-22T03:41:55.065Z,99604.06
2022-08-22T03:44:36.974Z,99602.75
2022-08-22T03:47:20.193Z,99602.09
2022-08-22T03:50:06.983Z,99597.34
2022-08-22T03:53:00.419Z,99594.44
2022-08-22T03:55:36.244Z,99595.44
2022-08-22T03:58:27.567Z,99592.66
2022-08-22T04:01:08.611Z,99595.72
2022-08-22T04:03:59.018Z,99605.97
2022-08-22T04:06:49.574Z,99601.97
2022-08-22T04:09:37.204Z,99609.16
2022-08-22T04:12:16.944Z,99607.38
2022-08-22T04:18:04.917Z,99608.72
2022-08-22T04:20:58.608Z,99602.75
2022-08-22T04:23:48.582Z,99611.88
2022-08-22T04:26:23.602Z,99604.78
2022-08-22T04:29:05.891Z,99604.31
2022-08-22T04:46:03.642Z,99608.97
2022-08-22T04:48:39.729Z,99606.47
2022-08-22T04:51:13.639Z,99615.59
2022-08-22T04:53:55.121Z,99608.47
2022-08-22T04:56:27.763Z,99612.44
2022-08-22T04:58:58.565Z,99607.81
2022-08-22T05:01:42.368Z,99609.63
2022-08-22T05:04:13.024Z,99592.81
2022-08-22T05:06:44.967Z,99598.00
2022-08-22T05:09:18.845Z,99595.84
2022-08-22T05:11:52.927Z,99594.81
2022-08-22T05:14:26.301Z,99587.34
2022-08-22T05:16:58.276Z,99588.28
2022-08-22T05:19:32.037Z,99581.44
2022-08-22T05:24:51.633Z,99588.53
2022-08-22T05:27:21.833Z,99583.63
2022-08-22T05:29:52.871Z,99590.47
2022-08-22T05:32:26.245Z,99586.34
2022-08-22T05:34:57.584Z,99583.25
2022-08-22T05:37:28.396Z,99580.16
2022-08-22T05:39:59.355Z,99587.84
2022-08-22T05:42:30.123Z,99590.84
2022-08-22T05:44:58.709Z,99597.66
2022-08-22T05:47:36.969Z,99593.59
2022-08-22T05:50:07.234Z,99607.06
2022-08-22T05:55:47.798Z,99619.06
2022-08-22T05:58:34.099Z,99613.75
2022-08-22T06:01:09.190Z,99601.31
2022-08-22T06:03:40.837Z,99604.75
2022-08-22T06:06:12.223Z,99603.97
2022-08-22T06:08:44.260Z,99611.75
2022-08-22T06:11:18.141Z,99604.94
2022-08-22T06:14:40.121Z,99608.59
2022-08-22T06:17:12.806Z,99610.31
2022-08-22T06:19:49.570Z,99614.34
2022-08-22T06:22:22.023Z,99613.41
2022-08-22T06:25:08.519Z,99620.06
2022-08-22T06:27:38.066Z,99619.03
2022-08-22T06:30:15.195Z,99623.00
2022-08-22T06:36:21.268Z,99622.03
2022-08-22T06:39:05.877Z,99622.50
2022-08-22T06:41:47.927Z,99628.38
2022-08-22T06:44:21.717Z,99621.56
2022-08-22T06:59:27.230Z,99636.41
2022-08-22T07:02:17.629Z,99630.69
2022-08-22T07:05:30.141Z,99633.88
2022-08-22T07:08:07.257Z,99632.13
2022-08-22T07:16:38.044Z,99627.09
2022-08-22T07:19:11.568Z,99624.06
2022-08-22T07:21:50.199Z,99631.50
2022-08-22T07:24:40.234Z,99631.50
2022-08-22T07:27:44.407Z,99642.41
2022-08-22T07:30:34.735Z,99634.97
2022-08-22T07:33:26.423Z,99647.53
2022-08-22T07:36:04.429Z,99639.44
2022-08-22T07:38:45.873Z,99643.06
2022-08-22T07:41:20.969Z,99642.06
2022-08-22T07:44:06.494Z,99643.78
2022-08-22T07:47:06.456Z,99641.50
2022-08-22T07:49:37.500Z,99637.25
2022-08-22T07:52:11.280Z,99639.59
2022-08-22T07:54:43.723Z,99637.63
2022-08-22T07:57:15.473Z,99640.78
2022-08-22T07:59:48.290Z,99649.38
2022-08-22T08:02:19.866Z,99647.06
2022-08-22T08:08:15.728Z,99646.66
2022-08-22T08:10:55.022Z,99644.75
2022-08-22T08:13:44.540Z,99629.50
2022-08-22T08:16:20.295Z,99654.16
2022-08-22T08:18:50.911Z,99643.59
2022-08-22T08:21:29.125Z,99645.16
2022-08-22T08:24:00.439Z,99636.19
2022-08-22T08:26:32.504Z,99647.91
2022-08-22T08:29:00.223Z,99644.78
2022-08-22T08:31:32.140Z,99644.00
2022-08-22T08:34:05.327Z,99644.41
2022-08-22T08:36:39.742Z,99642.06
2022-08-22T08:39:16.932Z,99653.00
2022-08-22T08:42:09.736Z,99647.91
2022-08-22T08:44:57.663Z,99645.56
2022-08-22T08:50:55.808Z,99645.41
2022-08-22T08:53:48.610Z,99643.38
2022-08-22T08:56:47.243Z,99638.25
2022-08-22T08:59:30.688Z,99654.28
2022-08-22T09:02:23.445Z,99649.59
2022-08-22T09:05:11.221Z,99642.06
2022-08-22T09:07:55.590Z,99649.69
2022-08-22T09:10:34.923Z,99651.88
2022-08-22T09:13:14.817Z,99657.97
2022-08-22T09:15:59.752Z,99655.25
2022-08-22T09:18:54.331Z,99661.75
2022-08-22T09:21:35.017Z,99660.72
2022-08-22T09:24:20.730Z,99662.13
2022-08-22T09:26:53.794Z,99663.72
2022-08-22T09:29:54.691Z,99642.00
2022-08-22T09:32:34.640Z,99663.44
2022-08-22T09:35:07.636Z,99667.44
2022-08-22T09:37:42.616Z,99663.56
2022-08-22T09:40:18.935Z,99659.81
2022-08-22T09:42:56.150Z,99657.41
2022-08-22T09:45:43.177Z,99655.34
2022-08-22T10:00:15.086Z,99650.06
2022-08-22T10:02:50.266Z,99650.53
2022-08-22T10:05:40.380Z,99647.16
2022-08-22T10:08:30.868Z,99649.44
2022-08-22T10:11:13.075Z,99648.31
2022-08-22T10:13:48.286Z,99654.53
2022-08-22T10:16:30.040Z,99654.38
2022-08-22T10:19:16.981Z,99654.09
2022-08-22T10:24:43.940Z,99659.63
2022-08-22T10:27:15.962Z,99653.19
2022-08-22T10:29:53.698Z,99662.84
2022-08-22T10:32:29.432Z,99659.41
2022-08-22T10:35:01.158Z,99660.66
2022-08-22T10:37:34.009Z,99663.22
2022-08-22T10:40:07.059Z,99662.28
2022-08-22T10:42:39.196Z,99667.03
2022-08-22T10:45:23.718Z,99667.06
2022-08-22T10:50:55.760Z,99667.84
2022-08-22T10:53:34.983Z,99652.69
2022-08-22T10:56:22.591Z,99662.06
2022-08-22T10:59:06.147Z,99659.94
2022-08-22T11:01:41.933Z,99655.00
2022-08-22T11:04:15.751Z,99661.56
2022-08-22T11:06:46.894Z,99653.41
2022-08-22T11:09:28.041Z,99655.81
2022-08-22T11:12:02.963Z,99656.44
2022-08-22T11:14:48.617Z,99651.00
2022-08-22T11:17:32.430Z,99659.13
2022-08-22T11:20:09.852Z,99653.78
2022-08-22T11:23:12.683Z,99647.78
2022-08-22T11:29:20.510Z,99652.09
2022-08-22T11:32:06.117Z,99646.31
2022-08-22T11:34:48.342Z,99647.44
2022-08-22T11:37:43.457Z,99641.72
2022-08-22T11:40:23.221Z,99643.25
2022-08-22T11:48:57.424Z,99629.25
2022-08-22T11:51:37.481Z,99632.16
2022-08-22T11:54:09.987Z,99627.38
2022-08-22T11:56:49.499Z,99616.78
2022-08-22T11:59:26.907Z,99622.06
2022-08-22T12:02:08.766Z,99619.72
2022-08-22T12:04:58.784Z,99625.25
2022-08-22T12:10:38.323Z,99616.84
2022-08-22T12:16:27.041Z,99615.88
2022-08-22T12:40:26.101Z,99621.97
2022-08-22T12:59:23.748Z,99626.50
2022-08-22T13:02:27.260Z,99620.72
2022-08-22T13:11:23.581Z,99616.81
2022-08-22T13:13:56.397Z,99617.22
2022-08-22T13:16:27.088Z,99619.94
2022-08-22T13:18:57.499Z,99623.91
2022-08-22T13:24:38.422Z,99621.63
2022-08-22T13:27:13.093Z,99616.09
2022-08-22T13:29:47.133Z,99613.31
2022-08-22T13:32:21.101Z,99610.59
2022-08-22T13:34:54.897Z,99618.63
2022-08-22T13:37:24.903Z,99620.06
2022-08-22T13:40:00.522Z,99620.88
2022-08-22T13:42:33.173Z,99616.78
2022-08-22T13:45:05.852Z,99612.91
2022-08-22T13:47:40.622Z,99610.88
2022-08-22T13:55:57.592Z,99600.28
2022-08-22T14:07:00.477Z,99601.00
2022-08-22T14:09:42.127Z,99602.72
2022-08-22T14:12:14.633Z,99604.69
2022-08-22T14:14:46.184Z,99599.72
2022-08-22T14:17:19.982Z,99600.19
2022-08-22T14:19:58.996Z,99603.44
2022-08-22T14:22:31.661Z,99594.09
2022-08-22T14:25:07.272Z,99593.41
2022-08-22T14:27:40.338Z,99600.13
2022-08-22T14:30:14.993Z,99603.72
2022-08-22T14:32:46.345Z,99601.41
2022-08-22T14:35:23.274Z,99597.94
2022-08-22T14:38:17.536Z,99600.72
2022-08-22T14:40:47.235Z,99591.34
2022-08-22T14:43:22.514Z,99594.13
2022-08-22T14:45:57.738Z,99596.88
2022-08-22T14:48:37.542Z,99591.41
2022-08-22T14:51:12.089Z,99600.78
2022-08-22T14:53:41.736Z,99594.94
2022-08-22T14:56:12.880Z,99587.53
2022-08-22T14:58:51.206Z,99590.69
2022-08-22T15:01:21.853Z,99591.88
2022-08-22T15:03:54.255Z,99591.50
2022-08-22T15:06:31.783Z,99593.09
2022-08-22T15:09:07.996Z,99591.53
2022-08-22T15:11:42.371Z,99592.31
2022-08-22T15:14:16.400Z,99589.19
2022-08-22T15:16:48.098Z,99589.19
2022-08-22T15:19:25.134Z,99598.19
2022-08-22T15:22:06.576Z,99599.00
2022-08-22T15:24:41.483Z,99599.38
2022-08-22T15:27:11.818Z,99608.38
2022-08-22T15:29:50.069Z,99601.75
2022-08-22T15:32:22.717Z,99600.16
2022-08-22T15:34:59.575Z,99600.16
2022-08-22T15:37:32.432Z,99599.78
2022-08-22T15:40:12.150Z,99593.06
2022-08-22T15:42:42.469Z,99598.94
2022-08-22T15:45:22.329Z,99596.91
2022-08-22T15:47:52.290Z,99592.97
2022-08-22T15:50:35.810Z,99590.97
2022-08-22T15:53:20.276Z,99595.63
2022-08-22T15:56:07.312Z,99589.75
2022-08-22T15:58:37.707Z,99586.56
2022-08-22T16:01:18.806Z,99592.00
2022-08-22T16:03:55.823Z,99593.50
2022-08-22T16:06:38.830Z,99595.44
2022-08-22T16:09:29.552Z,99600.03
2022-08-22T16:11:58.967Z,99596.47
2022-08-22T16:14:59.141Z,99589.84
2022-08-22T16:17:43.143Z,99602.66
2022-08-22T16:20:29.758Z,99605.72
2022-08-22T16:23:09.381Z,99602.94
2022-08-22T16:26:00.174Z,99605.63
2022-08-22T16:28:56.304Z,99609.84
2022-08-22T16:31:21.616Z,99614.44
2022-08-22T16:33:51.375Z,99612.06
2022-08-22T16:36:39.295Z,99625.22
2022-08-22T16:39:10.788Z,99617.72
2022-08-22T16:41:42.196Z,99619.94
2022-08-22T16:44:14.940Z,99616.72
2022-08-22T16:46:46.675Z,99622.47
2022-08-22T16:49:28.382Z,99612.59
2022-08-22T16:52:17.745Z,99615.97
2022-08-22T16:54:46.783Z,99622.06
2022-08-22T16:57:22.490Z,99621.47
2022-08-22T17:00:07.393Z,99625.22
2022-08-22T17:02:59.472Z,99630.88
2022-08-22T17:05:42.487Z,99627.66
2022-08-22T17:08:26.597Z,99626.72
2022-08-22T17:11:01.423Z,99634.78
2022-08-22T17:13:41.865Z,99632.81
2022-08-22T17:16:18.596Z,99630.38
2022-08-22T17:18:51.784Z,99634.22
2022-08-22T17:21:26.189Z,99637.28
2022-08-22T17:24:01.814Z,99640.38
2022-08-22T17:26:37.445Z,99637.66
2022-08-22T17:29:11.321Z,99642.81
2022-08-22T17:31:49.271Z,99643.16
2022-08-22T17:34:29.152Z,99642.38
2022-08-22T17:37:05.364Z,99640.00
2022-08-22T17:39:54.575Z,99640.44
2022-08-22T17:42:45.176Z,99642.72
2022-08-22T17:45:20.455Z,99643.88
2022-08-22T17:47:54.602Z,99646.91
2022-08-22T17:50:26.833Z,99641.00
2022-08-22T17:53:01.055Z,99646.38
2022-08-22T17:55:33.751Z,99645.84
2022-08-22T17:58:10.353Z,99645.34
2022-08-22T18:00:42.373Z,99651.78
2022-08-22T18:03:16.812Z,99653.66
2022-08-22T18:09:13.483Z,99650.69
2022-08-22T18:11:24.193Z,99644.75
2022-08-22T18:13:56.308Z,99651.25
2022-08-22T18:16:29.331Z,99653.91
2022-08-22T18:19:02.096Z,99658.91
2022-08-22T18:21:33.279Z,99651.06
2022-08-22T18:24:06.472Z,99653.34
2022-08-22T18:26:37.787Z,99652.91
2022-08-22T18:29:10.880Z,99651.72
2022-08-22T18:31:45.817Z,99653.63
2022-08-22T18:34:26.938Z,99649.34
2022-08-22T18:36:59.308Z,99654.78
2022-08-22T18:39:32.509Z,99645.47
2022-08-22T18:45:54.196Z,99650.47
2022-08-22T18:48:28.586Z,99647.75
2022-08-22T18:51:22.443Z,99651.19
2022-08-22T18:53:55.361Z,99645.41
2022-08-22T18:56:39.393Z,99642.31
2022-08-22T18:59:13.162Z,99646.63
2022-08-22T19:01:51.520Z,99645.47
2022-08-22T19:04:30.518Z,99643.97
2022-08-22T19:07:14.208Z,99640.09
2022-08-22T19:10:01.202Z,99651.41
2022-08-22T19:12:46.946Z,99646.75
2022-08-22T19:15:25.563Z,99655.63
2022-08-22T19:18:11.567Z,99654.06
2022-08-22T19:20:58.597Z,99645.47
2022-08-22T19:23:48.823Z,99657.50
2022-08-22T19:26:25.030Z,99660.91
2022-08-22T19:28:53.694Z,99661.66
2022-08-22T19:31:26.026Z,99656.50
2022-08-22T19:34:09.143Z,99653.78
2022-08-22T19:36:37.584Z,99661.50
2022-08-22T19:39:08.829Z,99661.50
2022-08-22T19:41:42.912Z,99658.78
2022-08-22T19:44:11.782Z,99659.91
2022-08-22T19:46:43.069Z,99658.72
2022-08-22T19:49:25.577Z,99654.66
2022-08-22T19:52:04.704Z,99661.69
2022-08-22T19:54:34.044Z,99660.81
2022-08-22T19:57:07.544Z,99650.66
2022-08-22T19:59:51.166Z,99660.31
2022-08-22T20:02:27.600Z,99659.47
2022-08-22T20:05:04.914Z,99653.16
2022-08-22T20:07:39.523Z,99660.44
2022-08-22T20:10:16.725Z,99660.72
2022-08-22T20:12:51.844Z,99659.47
2022-08-22T20:15:23.333Z,99654.34
2022-08-22T20:20:58.393Z,99661.09
2022-08-22T20:23:28.599Z,99659.78
2022-08-22T20:25:57.297Z,99667.06
2022-08-22T20:28:37.722Z,99663.50
2022-08-22T20:31:07.645Z,99670.41
2022-08-22T20:33:38.509Z,99674.97
2022-08-22T20:36:18.514Z,99683.03
2022-08-22T20:39:00.322Z,99681.47
2022-08-22T20:41:35.702Z,99686.75
2022-08-22T20:44:07.155Z,99686.00
2022-08-22T20:50:31.639Z,99677.03
2022-08-22T20:53:37.840Z,99683.59
2022-08-22T20:56:24.340Z,99686.31
2022-08-22T20:59:12.784Z,99687.47
2022-08-22T21:01:47.853Z,99688.69
2022-08-22T21:04:44.200Z,99690.53
2022-08-22T21:07:28.155Z,99689.41
2022-08-22T21:10:16.743Z,99698.31
2022-08-22T21:13:05.673Z,99701.31
2022-08-22T21:15:34.829Z,99702.81
2022-08-22T21:18:03.096Z,99708.13
2022-08-22T21:20:34.512Z,99716.19
2022-08-22T21:23:05.320Z,99717.56
2022-08-22T21:25:34.115Z,99710.84
2022-08-22T21:28:02.215Z,99719.22
2022-08-22T21:30:30.827Z,99718.34
2022-08-22T21:32:59.072Z,99710.47
2022-08-22T21:35:29.572Z,99715.34
2022-08-22T21:37:58.357Z,99724.09
2022-08-22T21:40:31.497Z,99728.25
2022-08-22T21:43:01.177Z,99724.69
2022-08-22T21:45:31.513Z,99719.94
2022-08-22T21:48:00.134Z,99725.25
2022-08-22T21:50:31.903Z,99726.25
2022-08-22T21:53:05.195Z,99733.53
2022-08-22T21:55:42.973Z,99739.28
2022-08-22T21:58:13.402Z,99737.28
2022-08-22T22:01:04.269Z,99736.81
2022-08-22T22:03:37.533Z,99739.41
2022-08-22T22:06:07.059Z,99740.91
2022-08-22T22:08:35.183Z,99741.25
2022-08-22T22:11:08.517Z,99752.09
2022-08-22T22:13:36.787Z,99740.00
2022-08-22T22:16:07.766Z,99745.41
2022-08-22T22:18:37.223Z,99745.41
2022-08-22T22:21:05.479Z,99749.25
2022-08-22T22:23:33.698Z,99757.38
2022-08-22T22:26:03.147Z,99760.47
2022-08-22T22:28:33.693Z,99753.09
2022-08-22T22:31:01.988Z,99756.97
2022-08-22T22:33:31.686Z,99752.69
2022-08-22T22:36:01.277Z,99755.72
2022-08-22T22:38:29.670Z,99754.47
2022-08-22T22:40:58.392Z,99756.06
2022-08-22T22:43:27.756Z,99754.47
2022-08-22T22:45:57.520Z,99754.84
2022-08-22T22:48:25.901Z,99751.69
2022-08-22T22:50:54.329Z,99752.44
2022-08-22T22:53:33.805Z,99751.69
2022-08-22T22:56:09.530Z,99760.13
2022-08-22T22:58:38.056Z,99752.00
2022-08-22T23:01:10.108Z,99764.78
2022-08-22T23:03:38.474Z,99757.78
2022-08-22T23:06:11.401Z,99755.38
2022-08-22T23:08:39.884Z,99755.72
2022-08-22T23:11:10.658Z,99758.81
2022-08-22T23:13:39.646Z,99757.53
2022-08-22T23:16:13.605Z,99757.88
2022-08-22T23:18:41.778Z,99763.31
2022-08-22T23:21:14.245Z,99751.56
2022-08-22T23:23:42.567Z,99756.53
2022-08-22T23:26:11.502Z,99760.72
2022-08-22T23:28:40.151Z,99758.38
2022-08-22T23:31:14.062Z,99760.63
2022-08-22T23:33:42.490Z,99762.53
2022-08-22T23:36:12.199Z,99758.59
2022-08-22T23:38:40.427Z,99767.50
2022-08-22T23:41:09.933Z,99764.00
2022-08-22T23:43:41.819Z,99766.72
2022-08-22T23:46:10.004Z,99764.78
2022-08-22T23:48:40.308Z,99771.69
2022-08-22T23:51:09.108Z,99769.31
2022-08-22T23:53:37.890Z,99768.97
2022-08-22T23:56:19.621Z,99772.81
2022-08-22T23:58:49.023Z,99772.81
